createdAt,value
2022-12-14T00:00:54.708Z,99444.41
2022-12-14T00:02:57.182Z,99449.69
2022-12-14T00:04:59.521Z,99449.66
2022-12-14T00:07:01.596Z,99448.84
2022-12-14T00:09:05.053Z,99451.50
2022-12-14T00:11:07.117Z,99447.97
2022-12-14T00:13:12.657Z,99440.06
2022-12-14T00:15:14.775Z,99445.31
2022-12-14T00:17:16.753Z,99446.22
2022-12-14T00:19:21.488Z,99440.94
2022-12-14T00:21:23.832Z,99446.25
2022-12-14T00:23:25.821Z,99440.97
2022-12-14T00:25:29.296Z,99443.59
2022-12-14T00:27:31.124Z,99448.88
2022-12-14T00:29:33.107Z,99441.81
2022-12-14T00:31:36.513Z,99442.66
2022-12-14T00:33:39.054Z,99444.41
2022-12-14T00:35:44.136Z,99432.13
2022-12-14T00:37:48.921Z,99437.41
2022-12-14T00:39:51.142Z,99440.91
2022-12-14T00:41:53.598Z,99442.63
2022-12-14T00:43:55.476Z,99441.75
2022-12-14T00:45:57.684Z,99436.50
2022-12-14T00:47:59.732Z,99438.28
2022-12-14T00:50:01.839Z,99431.22
2022-12-14T00:52:03.893Z,99437.38
2022-12-14T00:54:05.999Z,99440.91
2022-12-14T00:56:08.811Z,99437.38
2022-12-14T00:58:12.813Z,99437.38
2022-12-14T01:00:16.578Z,99435.59
2022-12-14T01:02:18.909Z,99439.13
2022-12-14T01:04:23.351Z,99437.34
2022-12-14T01:06:25.568Z,99432.94
2022-12-14T01:08:35.927Z,99434.72
2022-12-14T01:10:41.140Z,99434.72
2022-12-14T01:12:43.215Z,99442.66
2022-12-14T01:14:46.435Z,99444.41
2022-12-14T01:16:48.572Z,99442.69
2022-12-14T01:18:50.698Z,99447.97
2022-12-14T01:20:52.743Z,99435.63
2022-12-14T01:22:59.055Z,99425.06
2022-12-14T01:25:01.132Z,99424.19
2022-12-14T01:27:03.470Z,99427.69
2022-12-14T01:29:06.365Z,99417.16
2022-12-14T01:31:17.928Z,99415.34
2022-12-14T01:33:19.965Z,99418.84
2022-12-14T01:35:22.009Z,99406.56
2022-12-14T01:37:23.924Z,99405.69
2022-12-14T01:39:25.917Z,99402.16
2022-12-14T01:41:29.482Z,99405.69
2022-12-14T01:43:51.837Z,99402.19
2022-12-14T01:45:57.875Z,99399.56
2022-12-14T01:48:02.998Z,99404.81
2022-12-14T01:50:25.460Z,99405.63
2022-12-14T01:52:40.109Z,99400.41
2022-12-14T01:54:49.249Z,99398.66
2022-12-14T01:56:52.550Z,99395.09
2022-12-14T01:58:56.933Z,99392.50
2022-12-14T02:01:02.592Z,99393.38
2022-12-14T02:03:13.038Z,99399.50
2022-12-14T02:05:18.465Z,99395.13
2022-12-14T02:07:21.855Z,99396.91
2022-12-14T02:09:30.525Z,99399.56
2022-12-14T02:11:43.867Z,99390.75
2022-12-14T02:13:48.904Z,99389.84
2022-12-14T02:15:52.220Z,99382.84
2022-12-14T02:17:54.566Z,99375.84
2022-12-14T02:19:58.285Z,99382.81
2022-12-14T02:22:12.652Z,99378.41
2022-12-14T02:24:30.136Z,99376.69
2022-12-14T02:26:55.147Z,99381.94
2022-12-14T02:29:18.295Z,99374.03
2022-12-14T02:32:11.129Z,99381.94
2022-12-14T02:34:32.553Z,99377.53
2022-12-14T02:36:43.730Z,99374.94
2022-12-14T02:39:34.751Z,99376.66
2022-12-14T02:42:09.126Z,99370.53
2022-12-14T02:44:44.875Z,99372.31
2022-12-14T02:47:16.225Z,99367.03
2022-12-14T02:49:23.949Z,99359.09
2022-12-14T02:51:57.622Z,99357.31
2022-12-14T02:54:17.825Z,99352.91
2022-12-14T02:56:25.641Z,99346.75
2022-12-14T02:58:38.324Z,99339.75
2022-12-14T03:00:41.206Z,99338.91
2022-12-14T03:02:44.963Z,99342.41
2022-12-14T03:04:51.168Z,99341.53
2022-12-14T03:07:24.709Z,99335.34
2022-12-14T03:09:31.417Z,99338.91
2022-12-14T03:11:56.354Z,99341.53
2022-12-14T03:14:24.111Z,99340.66
2022-12-14T03:16:32.176Z,99345.97
2022-12-14T03:18:43.029Z,99337.16
2022-12-14T03:20:50.511Z,99336.28
2022-12-14T03:23:15.916Z,99332.78
2022-12-14T03:25:25.656Z,99333.66
2022-12-14T03:27:35.168Z,99334.53
2022-12-14T03:29:53.362Z,99338.97
2022-12-14T03:32:26.759Z,99345.09
2022-12-14T03:34:34.237Z,99336.31
2022-12-14T03:36:44.145Z,99336.31
2022-12-14T03:38:51.272Z,99331.91
2022-12-14T03:40:57.803Z,99326.63
2022-12-14T03:43:33.035Z,99328.38
2022-12-14T03:46:01.375Z,99331.94
2022-12-14T03:48:42.910Z,99324.88
2022-12-14T03:51:01.555Z,99323.13
2022-12-14T03:53:06.107Z,99316.94
2022-12-14T03:55:09.028Z,99308.16
2022-12-14T03:57:34.625Z,99305.53
2022-12-14T04:00:01.817Z,99304.63
2022-12-14T04:02:11.176Z,99295.81
2022-12-14T04:04:18.886Z,99297.59
2022-12-14T04:06:38.865Z,99307.28
2022-12-14T04:08:49.986Z,99308.16
2022-12-14T04:11:14.758Z,99296.69
2022-12-14T04:13:40.503Z,99298.47
2022-12-14T04:16:02.749Z,99290.53
2022-12-14T04:18:28.126Z,99293.16
2022-12-14T04:20:53.130Z,99298.47
2022-12-14T04:23:04.021Z,99304.63
2022-12-14T04:25:38.693Z,99301.13
2022-12-14T04:28:00.224Z,99306.41
2022-12-14T04:30:05.253Z,99306.38
2022-12-14T04:32:18.447Z,99301.09
2022-12-14T04:34:24.631Z,99290.53
2022-12-14T04:36:34.369Z,99283.50
2022-12-14T04:39:26.392Z,99289.66
2022-12-14T04:41:34.129Z,99286.13
2022-12-14T04:43:41.160Z,99289.66
2022-12-14T04:45:58.646Z,99287.00
2022-12-14T04:48:31.062Z,99279.94
2022-12-14T04:50:39.906Z,99285.25
2022-12-14T04:52:49.630Z,99277.31
2022-12-14T04:54:56.810Z,99287.00
2022-12-14T04:57:26.096Z,99272.03
2022-12-14T04:59:29.121Z,99272.91
2022-12-14T05:01:57.733Z,99277.34
2022-12-14T05:04:31.819Z,99278.19
2022-12-14T05:06:44.182Z,99280.84
2022-12-14T05:08:55.701Z,99269.34
2022-12-14T05:11:39.641Z,99274.66
2022-12-14T05:13:49.123Z,99272.03
2022-12-14T05:15:56.681Z,99263.19
2022-12-14T05:18:03.946Z,99257.91
2022-12-14T05:20:12.942Z,99264.06
2022-12-14T05:22:15.073Z,99269.34
2022-12-14T05:24:17.514Z,99271.09
2022-12-14T05:26:19.448Z,99264.94
2022-12-14T05:28:21.714Z,99262.28
2022-12-14T05:30:23.780Z,99258.75
2022-12-14T05:32:26.388Z,99258.72
2022-12-14T05:34:28.447Z,99252.56
2022-12-14T05:36:30.577Z,99250.75
2022-12-14T05:38:32.673Z,99245.50
2022-12-14T05:40:34.736Z,99244.63
2022-12-14T05:42:41.088Z,99240.22
2022-12-14T05:44:46.817Z,99244.66
2022-12-14T05:46:48.846Z,99234.06
2022-12-14T05:48:51.063Z,99236.69
2022-12-14T05:50:53.216Z,99240.22
2022-12-14T05:52:56.006Z,99234.91
2022-12-14T05:55:02.441Z,99236.66
2022-12-14T05:57:07.135Z,99236.66
2022-12-14T05:59:09.455Z,99231.38
2022-12-14T06:01:17.221Z,99225.19
2022-12-14T06:03:21.773Z,99230.47
2022-12-14T06:05:23.962Z,99233.13
2022-12-14T06:07:28.110Z,99223.44
2022-12-14T06:09:30.665Z,99220.81
2022-12-14T06:11:33.503Z,99226.91
2022-12-14T06:13:36.871Z,99226.91
2022-12-14T06:15:38.737Z,99225.16
2022-12-14T06:17:47.541Z,99221.56
2022-12-14T06:19:50.600Z,99221.63
2022-12-14T06:21:52.579Z,99214.53
2022-12-14T06:23:55.664Z,99218.00
2022-12-14T06:25:57.899Z,99227.66
2022-12-14T06:27:59.962Z,99220.59
2022-12-14T06:30:02.172Z,99221.41
2022-12-14T06:32:04.390Z,99212.59
2022-12-14T06:34:06.425Z,99219.63
2022-12-14T06:36:26.924Z,99235.53
2022-12-14T06:38:29.168Z,99237.28
2022-12-14T06:40:31.633Z,99246.06
2022-12-14T06:42:33.591Z,99252.22
2022-12-14T06:44:35.833Z,99265.41
2022-12-14T06:46:38.104Z,99263.63
2022-12-14T06:48:40.350Z,99251.25
2022-12-14T06:50:42.312Z,99254.78
2022-12-14T06:52:44.388Z,99260.97
2022-12-14T06:54:47.123Z,99270.75
2022-12-14T06:56:49.488Z,99257.59
2022-12-14T06:58:52.988Z,99261.06
2022-12-14T07:00:55.079Z,99259.31
2022-12-14T07:02:57.330Z,99244.28
2022-12-14T07:04:59.764Z,99241.59
2022-12-14T07:07:02.188Z,99245.13
2022-12-14T07:09:05.879Z,99239.81
2022-12-14T07:11:10.920Z,99243.34
2022-12-14T07:13:13.099Z,99233.63
2022-12-14T07:15:15.558Z,99223.88
2022-12-14T07:17:17.566Z,99225.59
2022-12-14T07:19:19.430Z,99221.16
2022-12-14T07:21:22.819Z,99222.25
2022-12-14T07:23:28.107Z,99210.81
2022-12-14T07:25:30.539Z,99202.84
2022-12-14T07:27:33.002Z,99201.03
2022-12-14T07:29:35.218Z,99198.50
2022-12-14T07:31:37.387Z,99190.50
2022-12-14T07:33:39.839Z,99195.78
2022-12-14T07:35:42.235Z,99184.28
2022-12-14T07:37:49.349Z,99179.00
2022-12-14T07:39:54.819Z,99172.75
2022-12-14T07:41:56.835Z,99159.50
2022-12-14T07:44:00.991Z,99146.19
2022-12-14T07:46:05.610Z,99142.66
2022-12-14T07:48:07.826Z,99141.81
2022-12-14T07:50:10.731Z,99129.44
2022-12-14T07:52:12.849Z,99135.53
2022-12-14T07:54:14.983Z,99125.78
2022-12-14T07:56:20.918Z,99136.38
2022-12-14T07:58:23.030Z,99140.78
2022-12-14T08:00:25.135Z,99150.41
2022-12-14T08:02:27.452Z,99131.00
2022-12-14T08:04:29.639Z,99148.56
2022-12-14T08:06:32.174Z,99145.84
2022-12-14T08:08:37.151Z,99151.16
2022-12-14T08:10:40.644Z,99155.53
2022-12-14T08:12:42.990Z,99142.22
2022-12-14T08:14:45.168Z,99142.22
2022-12-14T08:16:48.721Z,99137.75
2022-12-14T08:18:53.369Z,99138.59
2022-12-14T08:20:55.594Z,99128.91
2022-12-14T08:22:57.797Z,99129.81
2022-12-14T08:25:00.222Z,99121.84
2022-12-14T08:27:02.710Z,99128.78
2022-12-14T08:29:05.797Z,99127.94
2022-12-14T08:31:11.537Z,99138.56
2022-12-14T08:33:13.737Z,99139.41
2022-12-14T08:35:15.957Z,99138.50
2022-12-14T08:37:17.963Z,99135.78
2022-12-14T08:39:20.225Z,99143.78
2022-12-14T08:41:23.398Z,99146.44
2022-12-14T08:43:28.982Z,99149.00
2022-12-14T08:45:31.390Z,99133.84
2022-12-14T08:47:33.529Z,99139.22
2022-12-14T08:49:35.822Z,99138.19
2022-12-14T08:51:38.850Z,99145.16
2022-12-14T08:53:40.930Z,99130.06
2022-12-14T08:55:43.663Z,99134.41
2022-12-14T08:57:45.886Z,99128.13
2022-12-14T09:00:03.782Z,99136.91
2022-12-14T09:02:06.611Z,99139.47
2022-12-14T09:04:09.042Z,99135.78
2022-12-14T09:06:16.485Z,99124.28
2022-12-14T09:08:18.622Z,99119.75
2022-12-14T09:10:20.470Z,99120.56
2022-12-14T09:12:23.486Z,99119.56
2022-12-14T09:14:25.514Z,99119.53
2022-12-14T09:16:27.889Z,99111.47
2022-12-14T09:18:30.690Z,99128.34
2022-12-14T09:20:33.544Z,99116.75
2022-12-14T09:22:35.704Z,99117.59
2022-12-14T09:24:38.019Z,99110.50
2022-12-14T09:26:40.257Z,99107.72
2022-12-14T09:28:46.186Z,99115.66
2022-12-14T09:30:48.229Z,99112.91
2022-12-14T09:32:50.712Z,99105.81
2022-12-14T09:34:53.293Z,99110.19
2022-12-14T09:36:55.425Z,99110.31
2022-12-14T09:38:58.027Z,99103.03
2022-12-14T09:41:07.637Z,99095.78
2022-12-14T09:43:20.369Z,99093.13
2022-12-14T09:45:29.094Z,99088.56
2022-12-14T09:47:35.848Z,99085.09
2022-12-14T09:50:06.836Z,99090.47
2022-12-14T09:52:18.333Z,99084.25
2022-12-14T09:54:26.457Z,99080.66
2022-12-14T09:56:28.967Z,99079.72
2022-12-14T09:58:33.266Z,99081.44
2022-12-14T10:00:48.197Z,99069.94
2022-12-14T10:03:40.626Z,99076.25
2022-12-14T10:05:48.929Z,99069.88
2022-12-14T10:07:59.580Z,99073.38
2022-12-14T10:10:10.813Z,99060.88
2022-12-14T10:12:34.614Z,99068.03
2022-12-14T10:15:24.439Z,99059.81
2022-12-14T10:18:01.450Z,99060.72
2022-12-14T10:20:30.088Z,99063.50
2022-12-14T10:22:37.930Z,99053.50
2022-12-14T10:24:49.193Z,99040.97
2022-12-14T10:26:53.578Z,99038.28
2022-12-14T10:29:32.888Z,99041.00
2022-12-14T10:31:41.139Z,99027.41
2022-12-14T10:33:45.743Z,99022.84
2022-12-14T10:35:55.308Z,99023.56
2022-12-14T10:38:25.208Z,99018.16
2022-12-14T10:40:34.242Z,99015.50
2022-12-14T10:42:55.630Z,99010.94
2022-12-14T10:45:39.023Z,99017.19
2022-12-14T10:47:38.138Z,99006.56
2022-12-14T10:49:53.420Z,99007.34
2022-12-14T10:52:03.562Z,98989.47
2022-12-14T10:54:23.703Z,99002.94
2022-12-14T10:56:34.192Z,98994.91
2022-12-14T10:58:36.274Z,98991.22
2022-12-14T11:00:38.532Z,98983.22
2022-12-14T11:02:44.374Z,98977.16
2022-12-14T11:04:56.583Z,98974.22
2022-12-14T11:07:04.832Z,98967.34
2022-12-14T11:09:21.756Z,98964.59
2022-12-14T11:11:26.114Z,98959.03
2022-12-14T11:13:28.387Z,98973.09
2022-12-14T11:15:38.015Z,98963.66
2022-12-14T11:17:42.973Z,98963.59
2022-12-14T11:20:02.821Z,98959.00
2022-12-14T11:22:18.662Z,98963.56
2022-12-14T11:24:27.404Z,98961.38
2022-12-14T11:26:43.203Z,98961.50
2022-12-14T11:28:56.423Z,98971.22
2022-12-14T11:31:13.964Z,98970.31
2022-12-14T11:33:17.952Z,98963.13
2022-12-14T11:35:21.479Z,98963.91
2022-12-14T11:37:27.104Z,98963.97
2022-12-14T11:39:29.420Z,98959.50
2022-12-14T11:41:59.151Z,98957.06
2022-12-14T11:44:24.181Z,98956.25
2022-12-14T11:46:47.468Z,98948.25
2022-12-14T11:48:52.704Z,98953.63
2022-12-14T11:51:08.941Z,98950.78
2022-12-14T11:53:17.332Z,98948.84
2022-12-14T11:55:27.130Z,98935.53
2022-12-14T11:57:59.648Z,98937.34
2022-12-14T12:00:06.060Z,98935.47
2022-12-14T12:02:41.169Z,98939.09
2022-12-14T12:04:56.240Z,98940.22
2022-12-14T12:07:04.268Z,98939.84
2022-12-14T12:09:21.888Z,98947.75
2022-12-14T12:11:28.687Z,98946.84
2022-12-14T12:13:42.293Z,98949.59
2022-12-14T12:15:51.315Z,98946.78
2022-12-14T12:17:58.178Z,98939.66
2022-12-14T12:20:00.064Z,98940.47
2022-12-14T12:22:04.214Z,98937.84
2022-12-14T12:24:38.744Z,98935.25
2022-12-14T12:27:12.442Z,98933.47
2022-12-14T12:29:38.190Z,98926.34
2022-12-14T12:31:57.237Z,98922.72
2022-12-14T12:34:14.376Z,98928.03
2022-12-14T12:36:23.939Z,98929.72
2022-12-14T12:38:50.117Z,98926.22
2022-12-14T12:41:16.905Z,98925.31
2022-12-14T12:43:32.183Z,98925.50
2022-12-14T12:45:44.626Z,98927.16
2022-12-14T12:48:04.350Z,98926.44
2022-12-14T12:50:30.636Z,98926.22
2022-12-14T12:52:48.897Z,98916.56
2022-12-14T12:55:00.513Z,98917.41
2022-12-14T12:57:05.151Z,98920.63
2022-12-14T12:59:07.933Z,98916.16
2022-12-14T13:01:19.994Z,98914.50
2022-12-14T13:03:53.501Z,98913.97
2022-12-14T13:06:03.139Z,98907.75
2022-12-14T13:08:13.689Z,98909.19
2022-12-14T13:10:32.349Z,98911.84
2022-12-14T13:12:42.209Z,98907.31
2022-12-14T13:14:50.281Z,98911.69
2022-12-14T13:16:54.468Z,98902.78
2022-12-14T13:21:36.737Z,98898.44
2022-12-14T13:23:46.330Z,98895.69
2022-12-14T13:26:55.608Z,98891.59
2022-12-14T13:28:57.375Z,98896.63
2022-12-14T13:31:21.045Z,98890.66
2022-12-14T13:33:42.166Z,98891.44
2022-12-14T13:36:15.509Z,98887.13
2022-12-14T13:38:42.236Z,98889.59
2022-12-14T13:41:19.933Z,98887.78
2022-12-14T13:43:49.778Z,98879.91
2022-12-14T13:45:51.945Z,98883.44
2022-12-14T13:47:57.244Z,98886.31
2022-12-14T13:52:41.758Z,98880.34
2022-12-14T13:54:47.726Z,98881.91
2022-12-14T13:56:50.158Z,98879.19
2022-12-14T13:58:52.949Z,98876.56
2022-12-14T14:00:58.562Z,98872.03
2022-12-14T14:03:00.710Z,98872.75
2022-12-14T14:05:20.611Z,98860.59
2022-12-14T14:07:25.532Z,98853.56
2022-12-14T14:09:33.857Z,98842.75
2022-12-14T14:11:37.537Z,98841.59
2022-12-14T14:13:40.334Z,98837.03
2022-12-14T14:16:26.425Z,98831.97
2022-12-14T14:18:19.901Z,98840.72
2022-12-14T14:20:35.256Z,98838.16
2022-12-14T14:22:39.123Z,98832.94
2022-12-14T14:25:02.522Z,98834.63
2022-12-14T14:27:07.598Z,98831.78
2022-12-14T14:29:21.432Z,98830.84
2022-12-14T14:31:43.972Z,98828.06
2022-12-14T14:33:49.694Z,98823.47
2022-12-14T14:35:51.976Z,98831.34
2022-12-14T14:37:59.405Z,98828.72
2022-12-14T14:40:20.659Z,98825.28
2022-12-14T14:42:29.698Z,98822.63
2022-12-14T14:44:40.784Z,98818.97
2022-12-14T14:46:48.612Z,98824.22
2022-12-14T14:48:56.596Z,98818.06
2022-12-14T14:51:05.978Z,98800.34
2022-12-14T14:53:30.091Z,98803.03
2022-12-14T14:58:01.225Z,98801.31
2022-12-14T15:00:06.745Z,98792.38
2022-12-14T15:02:41.906Z,98789.72
2022-12-14T15:04:51.546Z,98785.25
2022-12-14T15:07:07.691Z,98786.09
2022-12-14T15:09:09.707Z,98773.63
2022-12-14T15:11:17.101Z,98773.88
2022-12-14T15:13:30.243Z,98765.63
2022-12-14T15:15:46.059Z,98758.22
2022-12-14T15:17:48.098Z,98750.41
2022-12-14T15:20:03.257Z,98742.66
2022-12-14T15:22:36.642Z,98742.75
2022-12-14T15:24:42.452Z,98732.94
2022-12-14T15:26:44.583Z,98734.88
2022-12-14T15:28:49.380Z,98731.75
2022-12-14T15:30:51.770Z,98732.22
2022-12-14T15:32:59.286Z,98729.97
2022-12-14T15:35:08.631Z,98724.63
2022-12-14T15:37:37.130Z,98741.75
2022-12-14T15:39:40.778Z,98733.59
2022-12-14T15:41:43.180Z,98729.78
2022-12-14T15:43:47.063Z,98733.59
2022-12-14T15:45:55.671Z,98735.16
2022-12-14T15:48:40.387Z,98738.03
2022-12-14T15:50:46.665Z,98740.47
2022-12-14T15:52:51.280Z,98747.34
2022-12-14T15:54:53.596Z,98755.41
2022-12-14T15:56:57.903Z,98746.66
2022-12-14T15:59:31.751Z,98743.13
2022-12-14T16:01:54.204Z,98758.16
2022-12-14T16:04:07.821Z,98749.34
2022-12-14T16:06:14.585Z,98755.72
2022-12-14T16:08:17.827Z,98759.94
2022-12-14T16:10:29.050Z,98761.88
2022-12-14T16:12:44.732Z,98759.00
2022-12-14T16:14:47.713Z,98764.34
2022-12-14T16:16:50.945Z,98777.34
2022-12-14T16:18:53.089Z,98774.22
2022-12-14T16:21:00.550Z,98774.25
2022-12-14T16:23:20.298Z,98778.66
2022-12-14T16:25:22.391Z,98777.69
2022-12-14T16:27:27.820Z,98771.34
2022-12-14T16:29:32.488Z,98770.41
2022-12-14T16:31:36.353Z,98776.69
2022-12-14T16:33:40.993Z,98771.34
2022-12-14T16:35:44.768Z,98776.78
2022-12-14T16:37:51.385Z,98773.31
2022-12-14T16:39:53.727Z,98776.66
2022-12-14T16:42:00.832Z,98790.25
2022-12-14T16:44:07.722Z,98789.97
2022-12-14T16:46:15.493Z,98791.09
2022-12-14T16:48:21.313Z,98783.69
2022-12-14T16:50:56.632Z,98780.28
2022-12-14T16:52:47.313Z,98784.69
2022-12-14T16:55:14.418Z,98785.66
2022-12-14T16:57:24.470Z,98778.59
2022-12-14T16:59:38.302Z,98774.22
2022-12-14T17:01:45.125Z,98771.59
2022-12-14T17:04:00.138Z,98779.69
2022-12-14T17:06:07.567Z,98778.00
2022-12-14T17:08:11.747Z,98769.06
2022-12-14T17:10:32.839Z,98764.47
2022-12-14T17:12:35.035Z,98769.84
2022-12-14T17:14:37.149Z,98762.72
2022-12-14T17:16:39.790Z,98759.25
2022-12-14T17:18:45.297Z,98760.94
2022-12-14T17:20:47.538Z,98757.22
2022-12-14T17:22:50.197Z,98751.72
2022-12-14T17:24:52.536Z,98750.75
2022-12-14T17:26:54.589Z,98757.66
2022-12-14T17:28:57.582Z,98745.25
2022-12-14T17:31:01.969Z,98740.16
2022-12-14T17:33:04.194Z,98747.34
2022-12-14T17:35:10.815Z,98737.56
2022-12-14T17:37:24.609Z,98739.63
2022-12-14T17:39:28.846Z,98729.72
2022-12-14T17:41:31.206Z,98726.19
2022-12-14T17:43:33.698Z,98724.34
2022-12-14T17:45:36.091Z,98718.44
2022-12-14T17:47:38.225Z,98711.63
2022-12-14T17:49:42.439Z,98715.34
2022-12-14T17:51:46.689Z,98710.88
2022-12-14T17:53:49.371Z,98702.91
2022-12-14T17:55:51.468Z,98705.50
2022-12-14T17:57:54.616Z,98692.91
2022-12-14T18:00:15.534Z,98681.28
2022-12-14T18:02:26.646Z,98674.34
2022-12-14T18:04:28.942Z,98665.41
2022-12-14T18:06:33.926Z,98664.56
2022-12-14T18:08:35.988Z,98660.78
2022-12-14T18:10:39.093Z,98653.94
2022-12-14T18:12:44.633Z,98655.44
2022-12-14T18:14:47.133Z,98643.94
2022-12-14T18:16:49.943Z,98647.59
2022-12-14T18:18:54.321Z,98637.44
2022-12-14T18:21:02.365Z,98634.81
2022-12-14T18:23:04.442Z,98639.03
2022-12-14T18:25:32.661Z,98633.09
2022-12-14T18:27:34.645Z,98631.16
2022-12-14T18:29:39.081Z,98633.19
2022-12-14T18:31:41.326Z,98618.28
2022-12-14T18:33:47.519Z,98615.25
2022-12-14T18:35:50.784Z,98609.13
2022-12-14T18:37:53.588Z,98602.84
2022-12-14T18:39:55.682Z,98601.06
2022-12-14T18:42:00.617Z,98598.34
2022-12-14T18:44:02.891Z,98595.75
2022-12-14T18:46:05.389Z,98602.03
2022-12-14T18:48:07.770Z,98599.56
2022-12-14T18:50:10.271Z,98588.72
2022-12-14T18:52:13.122Z,98587.06
2022-12-14T18:54:17.575Z,98589.72
2022-12-14T18:56:22.191Z,98584.28
2022-12-14T18:58:29.345Z,98579.06
2022-12-14T19:00:36.491Z,98578.25
2022-12-14T19:02:39.803Z,98577.53
2022-12-14T19:04:42.298Z,98571.34
2022-12-14T19:06:46.132Z,98557.00
2022-12-14T19:08:49.521Z,98572.91
2022-12-14T19:10:51.762Z,98563.78
2022-12-14T19:12:54.299Z,98569.03
2022-12-14T19:14:56.341Z,98562.09
2022-12-14T19:16:58.820Z,98553.38
2022-12-14T19:19:00.991Z,98549.56
2022-12-14T19:21:04.026Z,98556.53
2022-12-14T19:23:16.399Z,98547.69
2022-12-14T19:25:19.832Z,98548.41
2022-12-14T19:27:42.531Z,98548.50
2022-12-14T19:29:44.290Z,98552.06
2022-12-14T19:31:47.794Z,98555.69
2022-12-14T19:33:54.337Z,98554.88
2022-12-14T19:35:56.666Z,98562.56
2022-12-14T19:37:58.792Z,98559.81
2022-12-14T19:40:02.803Z,98559.88
2022-12-14T19:42:04.992Z,98561.63
2022-12-14T19:44:07.448Z,98558.13
2022-12-14T19:46:11.504Z,98561.88
2022-12-14T19:48:13.806Z,98562.88
2022-12-14T19:50:16.550Z,98551.09
2022-12-14T19:52:18.656Z,98558.13
2022-12-14T19:54:20.787Z,98571.59
2022-12-14T19:56:23.516Z,98563.56
2022-12-14T19:58:25.609Z,98569.81
2022-12-14T20:00:28.031Z,98566.44
2022-12-14T20:02:30.261Z,98559.81
2022-12-14T20:04:35.436Z,98560.53
2022-12-14T20:06:37.827Z,98555.09
2022-12-14T20:08:39.966Z,98562.19
2022-12-14T20:10:42.277Z,98555.72
2022-12-14T20:12:44.352Z,98557.56
2022-12-14T20:14:49.360Z,98552.25
2022-12-14T20:16:52.627Z,98549.31
2022-12-14T20:18:54.781Z,98541.31
2022-12-14T20:21:16.034Z,98543.38
2022-12-14T20:23:22.406Z,98538.75
2022-12-14T20:25:25.081Z,98546.38
2022-12-14T20:27:27.283Z,98546.31
2022-12-14T20:29:29.461Z,98539.88
2022-12-14T20:31:34.963Z,98532.13
2022-12-14T20:33:38.835Z,98531.00
2022-12-14T20:35:43.548Z,98536.34
2022-12-14T20:37:46.372Z,98524.59
2022-12-14T20:39:48.873Z,98527.41
2022-12-14T20:41:54.096Z,98532.47
2022-12-14T20:43:56.307Z,98527.38
2022-12-14T20:45:58.751Z,98520.19
2022-12-14T20:48:00.902Z,98528.03
2022-12-14T20:50:06.940Z,98526.34
2022-12-14T20:52:09.266Z,98531.69
2022-12-14T20:54:17.794Z,98526.53
2022-12-14T20:56:19.789Z,98517.53
2022-12-14T20:58:22.320Z,98519.38
2022-12-14T21:00:24.698Z,98525.69
2022-12-14T21:02:26.858Z,98518.06
2022-12-14T21:04:29.092Z,98518.03
2022-12-14T21:06:33.150Z,98517.06
2022-12-14T21:08:54.208Z,98518.84
2022-12-14T21:11:23.762Z,98521.53
2022-12-14T21:13:25.768Z,98513.34
2022-12-14T21:15:28.424Z,98509.69
2022-12-14T21:17:31.381Z,98513.28
2022-12-14T21:19:33.614Z,98513.22
2022-12-14T21:21:35.447Z,98507.88
2022-12-14T21:23:41.237Z,98509.66
2022-12-14T21:25:44.198Z,98512.91
2022-12-14T21:27:46.540Z,98516.38
2022-12-14T21:29:49.472Z,98511.06
2022-12-14T21:31:51.554Z,98526.16
2022-12-14T21:33:58.537Z,98519.09
2022-12-14T21:36:00.785Z,98525.28
2022-12-14T21:38:03.137Z,98513.88
2022-12-14T21:40:05.815Z,98519.25
2022-12-14T21:42:10.577Z,98523.84
2022-12-14T21:44:12.697Z,98528.34
2022-12-14T21:46:18.771Z,98527.56
2022-12-14T21:48:21.059Z,98529.34
2022-12-14T21:50:23.208Z,98529.41
2022-12-14T21:52:26.707Z,98534.66
2022-12-14T21:54:29.029Z,98539.97
2022-12-14T21:56:49.541Z,98531.88
2022-12-14T21:58:53.125Z,98531.00
2022-12-14T22:00:56.403Z,98538.31
2022-12-14T22:02:58.972Z,98523.25
2022-12-14T22:05:01.074Z,98527.59
2022-12-14T22:07:03.339Z,98526.66
2022-12-14T22:09:05.978Z,98532.00
2022-12-14T22:11:08.418Z,98532.06
2022-12-14T22:13:10.554Z,98530.16
2022-12-14T22:15:12.817Z,98539.28
2022-12-14T22:17:14.973Z,98538.97
2022-12-14T22:19:22.372Z,98555.00
2022-12-14T22:21:24.457Z,98556.00
2022-12-14T22:23:26.712Z,98554.41
2022-12-14T22:25:29.216Z,98554.53
2022-12-14T22:27:31.650Z,98565.16
2022-12-14T22:29:33.882Z,98568.28
2022-12-14T22:31:37.429Z,98574.38
2022-12-14T22:33:39.673Z,98567.25
2022-12-14T22:35:41.734Z,98572.19
2022-12-14T22:37:43.821Z,98586.56
2022-12-14T22:39:48.780Z,98586.50
2022-12-14T22:41:51.142Z,98590.22
2022-12-14T22:43:57.877Z,98590.16
2022-12-14T22:46:04.036Z,98594.63
2022-12-14T22:48:06.314Z,98599.47
2022-12-14T22:50:09.117Z,98600.31
2022-12-14T22:52:11.398Z,98597.66
2022-12-14T22:54:21.207Z,98607.63
2022-12-14T22:56:34.727Z,98599.56
2022-12-14T22:58:39.651Z,98597.06
2022-12-14T23:00:41.956Z,98612.16
2022-12-14T23:02:48.196Z,98606.03
2022-12-14T23:04:51.204Z,98606.00
2022-12-14T23:06:54.333Z,98600.69
2022-12-14T23:09:15.204Z,98591.00
2022-12-14T23:11:36.013Z,98597.31
2022-12-14T23:13:56.803Z,98597.16
2022-12-14T23:16:17.799Z,98592.81
2022-12-14T23:18:39.039Z,98591.84
2022-12-14T23:20:59.526Z,98597.28
2022-12-14T23:23:24.381Z,98607.09
2022-12-14T23:25:45.434Z,98602.53
2022-12-14T23:28:05.967Z,98605.78
2022-12-14T23:30:27.606Z,98602.06
2022-12-14T23:32:48.276Z,98597.50
2022-12-14T23:35:09.423Z,98604.25
2022-12-14T23:37:30.108Z,98604.84
2022-12-14T23:39:51.347Z,98599.41
2022-12-14T23:42:12.596Z,98599.47
2022-12-14T23:44:33.102Z,98610.41
2022-12-14T23:46:53.809Z,98606.00
2022-12-14T23:49:16.232Z,98613.00
2022-12-14T23:51:37.054Z,98612.31
2022-12-14T23:53:57.921Z,98614.13
2022-12-14T23:56:19.318Z,98615.13
2022-12-14T23:58:40.108Z,98618.84
